Time,TemperatureF,DewpointF,PressureIn,WindDirection,WindDirectionDegrees,WindSpeedMPH,WindSpeedGustMPH,Humidity,HourlyPrecipIn,Conditions,Clouds,dailyrainin,SoftwareType,DateUTC
2013-06-04 00:05:00,61.7,60.8,29.90,NE,45,0.0,-999.0,97,-99.99,,,0.00,Acu-Link.com,2013-06-04 04:05:00,
2013-06-04 00:21:00,61.3,60.4,29.90,SSE,157,0.0,-999.0,97,-99.99,,,0.00,Acu-Link.com,2013-06-04 04:21:00,
2013-06-04 00:36:00,60.8,59.9,29.91,ENE,67,0.0,-999.0,97,-99.99,,,0.00,Acu-Link.com,2013-06-04 04:36:00,
2013-06-04 00:52:00,60.4,59.8,29.90,SSW,202,0.0,-999.0,98,-99.99,,,0.00,Acu-Link.com,2013-06-04 04:52:00,
2013-06-04 01:07:00,60.1,59.8,29.91,ESE,112,0.0,-999.0,99,-99.99,,,0.00,Acu-Link.com,2013-06-04 05:07:00,
2013-06-04 01:22:00,59.7,59.4,29.91,NNE,22,0.0,-999.0,99,-99.99,,,0.00,Acu-Link.com,2013-06-04 05:22:00,
2013-06-04 01:37:00,59.4,59.1,29.91,WNW,292,0.0,-999.0,99,-99.99,,,0.00,Acu-Link.com,2013-06-04 05:37:00,
2013-06-04 01:53:00,59.2,58.9,29.91,ESE,112,0.0,-999.0,99,-99.99,,,0.00,Acu-Link.com,2013-06-04 05:53:00,
2013-06-04 02:08:00,58.6,58.3,29.91,SSW,202,0.0,-999.0,99,-99.99,,,0.00,Acu-Link.com,2013-06-04 06:08:00,
2013-06-04 02:23:00,58.6,58.3,29.91,NE,45,0.0,-999.0,99,-99.99,,,0.00,Acu-Link.com,2013-06-04 06:23:00,
2013-06-04 02:39:00,58.6,58.3,29.91,SSW,202,0.0,-999.0,99,-99.99,,,0.00,Acu-Link.com,2013-06-04 06:39:00,
2013-06-04 02:54:00,58.5,58.2,29.91,SE,135,0.0,-999.0,99,-99.99,,,0.00,Acu-Link.com,2013-06-04 06:54:00,
2013-06-04 03:09:00,58.1,57.8,29.90,South,180,0.0,-999.0,99,-99.99,,,0.00,Acu-Link.com,2013-06-04 07:09:00,
2013-06-04 03:24:00,57.9,57.6,29.90,SSE,157,0.0,-999.0,99,-99.99,,,0.00,Acu-Link.com,2013-06-04 07:24:00,
2013-06-04 03:40:00,57.7,57.4,29.90,NE,45,0.0,-999.0,99,-99.99,,,0.00,Acu-Link.com,2013-06-04 07:40:00,
2013-06-04 03:55:00,57.6,57.3,29.90,SSW,202,0.0,-999.0,99,-99.99,,,0.00,Acu-Link.com,2013-06-04 07:55:00,
2013-06-04 04:12:00,57.4,57.1,29.90,NW,315,0.0,-999.0,99,-99.99,,,0.00,Acu-Link.com,2013-06-04 08:12:00,
2013-06-04 04:28:00,57.2,56.9,29.90,ESE,112,0.0,-999.0,99,-99.99,,,0.00,Acu-Link.com,2013-06-04 08:28:00,
2013-06-04 04:43:00,57.2,56.9,29.90,East,90,0.0,-999.0,99,-99.99,,,0.00,Acu-Link.com,2013-06-04 08:43:00,
2013-06-04 04:58:00,56.8,56.5,29.90,SE,135,0.0,-999.0,99,-99.99,,,0.00,Acu-Link.com,2013-06-04 08:58:00,
2013-06-04 05:13:00,56.7,56.4,29.91,East,90,0.0,-999.0,99,-99.99,,,0.00,Acu-Link.com,2013-06-04 09:13:00,
2013-06-04 05:28:00,56.5,56.2,29.92,ENE,67,0.0,-999.0,99,-99.99,,,0.00,Acu-Link.com,2013-06-04 09:28:00,
2013-06-04 05:44:00,55.9,55.6,29.92,East,90,0.0,-999.0,99,-99.99,,,0.00,Acu-Link.com,2013-06-04 09:44:00,
2013-06-04 05:59:00,55.8,55.5,29.92,NE,45,0.0,-999.0,99,-99.99,,,0.00,Acu-Link.com,2013-06-04 09:59:00,
2013-06-04 06:14:00,55.8,55.5,29.93,East,90,0.0,-999.0,99,-99.99,,,0.00,Acu-Link.com,2013-06-04 10:14:00,
2013-06-04 06:29:00,55.8,55.5,29.94,WNW,292,0.0,-999.0,99,-99.99,,,0.00,Acu-Link.com,2013-06-04 10:29:00,
2013-06-04 06:45:00,55.8,55.5,29.94,SSW,202,0.0,-999.0,99,-99.99,,,0.00,Acu-Link.com,2013-06-04 10:45:00,
2013-06-04 07:00:00,55.8,55.5,29.94,East,90,0.0,-999.0,99,-99.99,,,0.00,Acu-Link.com,2013-06-04 11:00:00,
2013-06-04 07:15:00,56.1,55.8,29.94,NE,45,0.0,-999.0,99,-99.99,,,0.00,Acu-Link.com,2013-06-04 11:15:00,
2013-06-04 07:30:00,56.3,56.0,29.95,ESE,112,0.0,-999.0,99,-99.99,,,0.00,Acu-Link.com,2013-06-04 11:30:00,
2013-06-04 07:46:00,57.4,57.1,29.95,NNW,337,0.0,-999.0,99,-99.99,,,0.00,Acu-Link.com,2013-06-04 11:46:00,
2013-06-04 08:16:00,58.6,58.3,29.95,SW,225,0.0,-999.0,99,-99.99,,,0.00,Acu-Link.com,2013-06-04 12:16:00,
2013-06-04 08:31:00,59.5,58.9,29.95,SW,225,0.0,-999.0,98,-99.99,,,0.00,Acu-Link.com,2013-06-04 12:31:00,
2013-06-04 08:47:00,60.8,59.7,29.95,South,180,0.0,-999.0,96,-99.99,,,0.00,Acu-Link.com,2013-06-04 12:47:00,
2013-06-04 09:02:00,62.8,60.7,29.96,South,180,0.0,-999.0,93,-99.99,,,0.00,Acu-Link.com,2013-06-04 13:02:00,
2013-06-04 09:17:00,63.3,60.9,29.96,SSW,202,0.0,-999.0,92,-99.99,,,0.00,Acu-Link.com,2013-06-04 13:17:00,
2013-06-04 09:33:00,64.2,61.8,29.96,SW,225,0.0,-999.0,92,-99.99,,,0.00,Acu-Link.com,2013-06-04 13:33:00,
2013-06-04 09:48:00,66.4,63.1,29.96,SW,225,0.0,-999.0,89,-99.99,,,0.00,Acu-Link.com,2013-06-04 13:48:00,
2013-06-04 10:03:00,68.5,63.8,29.96,SSW,202,0.0,-999.0,85,-99.99,,,0.00,Acu-Link.com,2013-06-04 14:03:00,
2013-06-04 10:18:00,70.7,64.9,29.96,SW,225,0.0,-999.0,82,-99.99,,,0.00,Acu-Link.com,2013-06-04 14:18:00,
2013-06-04 10:34:00,72.1,63.7,29.97,SW,225,0.0,-999.0,75,-99.99,,,0.00,Acu-Link.com,2013-06-04 14:34:00,
2013-06-04 10:49:00,74.5,64.1,29.97,East,90,0.0,-999.0,70,-99.99,,,0.00,Acu-Link.com,2013-06-04 14:49:00,
2013-06-04 11:04:00,75.4,61.0,29.96,SW,225,0.0,-999.0,61,-99.99,,,0.00,Acu-Link.com,2013-06-04 15:04:00,
2013-06-04 11:19:00,76.5,61.6,29.96,ENE,67,2.7,-999.0,60,-99.99,,,0.00,Acu-Link.com,2013-06-04 15:19:00,
2013-06-04 11:35:00,75.4,61.5,29.96,East,90,2.2,-999.0,62,-99.99,,,0.00,Acu-Link.com,2013-06-04 15:35:00,
2013-06-04 11:50:00,77.2,61.7,29.96,SE,135,2.7,-999.0,59,-99.99,,,0.00,Acu-Link.com,2013-06-04 15:50:00,
2013-06-04 12:05:00,78.4,62.4,29.96,South,180,1.7,-999.0,58,-99.99,,,0.00,Acu-Link.com,2013-06-04 16:05:00,
2013-06-04 12:21:00,79.0,61.9,29.96,NE,45,2.7,-999.0,56,-99.99,,,0.00,Acu-Link.com,2013-06-04 16:21:00,
2013-06-04 12:36:00,79.3,62.7,29.96,ESE,112,1.7,-999.0,57,-99.99,,,0.00,Acu-Link.com,2013-06-04 16:36:00,
2013-06-04 12:51:00,79.7,60.5,29.96,East,90,1.7,-999.0,52,-99.99,,,0.00,Acu-Link.com,2013-06-04 16:51:00,
2013-06-04 13:07:00,77.5,60.0,29.95,South,180,1.7,-999.0,55,-99.99,,,0.00,Acu-Link.com,2013-06-04 17:07:00,
2013-06-04 13:22:00,78.8,61.8,29.96,ESE,112,0.0,-999.0,56,-99.99,,,0.00,Acu-Link.com,2013-06-04 17:22:00,
2013-06-04 13:37:00,80.6,62.4,29.96,NE,45,1.7,-999.0,54,-99.99,,,0.00,Acu-Link.com,2013-06-04 17:37:00,
2013-06-04 13:52:00,78.4,60.9,29.95,ENE,67,2.2,-999.0,55,-99.99,,,0.00,Acu-Link.com,2013-06-04 17:52:00,
2013-06-04 14:07:00,79.7,60.5,29.95,NE,45,3.2,-999.0,52,-99.99,,,0.00,Acu-Link.com,2013-06-04 18:07:00,
2013-06-04 14:23:00,80.2,62.5,29.95,NE,45,0.0,-999.0,55,-99.99,,,0.00,Acu-Link.com,2013-06-04 18:23:00,
2013-06-04 14:38:00,81.7,60.7,29.94,ESE,112,1.7,-999.0,49,-99.99,,,0.00,Acu-Link.com,2013-06-04 18:38:00,
2013-06-04 14:53:00,81.5,61.6,29.94,South,180,1.1,-999.0,51,-99.99,,,0.00,Acu-Link.com,2013-06-04 18:53:00,
2013-06-04 15:09:00,82.0,63.2,29.93,NE,45,3.2,-999.0,53,-99.99,,,0.00,Acu-Link.com,2013-06-04 19:09:00,
2013-06-04 15:24:00,81.1,61.2,29.93,SW,225,0.0,-999.0,51,-99.99,,,0.00,Acu-Link.com,2013-06-04 19:24:00,
2013-06-04 15:39:00,80.8,63.1,29.93,ESE,112,0.0,-999.0,55,-99.99,,,0.00,Acu-Link.com,2013-06-04 19:39:00,
2013-06-04 15:54:00,81.1,63.4,29.92,WNW,292,0.0,-999.0,55,-99.99,,,0.00,Acu-Link.com,2013-06-04 19:54:00,
2013-06-04 16:09:00,80.4,61.1,29.92,South,180,0.0,-999.0,52,-99.99,,,0.00,Acu-Link.com,2013-06-04 20:09:00,
2013-06-04 16:24:00,80.4,62.2,29.92,West,270,1.7,-999.0,54,-99.99,,,0.00,Acu-Link.com,2013-06-04 20:24:00,
2013-06-04 16:40:00,84.9,63.0,29.92,NNW,337,2.2,-999.0,48,-99.99,,,0.00,Acu-Link.com,2013-06-04 20:40:00,
2013-06-04 16:55:00,84.6,63.3,29.91,NNE,22,0.0,-999.0,49,-99.99,,,0.00,Acu-Link.com,2013-06-04 20:55:00,
2013-06-04 17:10:00,83.1,63.1,29.91,WSW,247,0.0,-999.0,51,-99.99,,,0.00,Acu-Link.com,2013-06-04 21:10:00,
2013-06-04 17:25:00,82.0,65.2,29.91,WSW,247,0.0,-999.0,57,-99.99,,,0.00,Acu-Link.com,2013-06-04 21:25:00,
2013-06-04 18:11:00,81.0,63.3,29.90,WNW,292,0.0,-999.0,55,-99.99,,,0.00,Acu-Link.com,2013-06-04 22:11:00,
2013-06-04 18:26:00,80.6,62.9,29.90,West,270,0.0,-999.0,55,-99.99,,,0.00,Acu-Link.com,2013-06-04 22:26:00,
2013-06-04 18:42:00,79.3,63.7,29.90,WSW,247,0.0,-999.0,59,-99.99,,,0.00,Acu-Link.com,2013-06-04 22:42:00,
2013-06-04 18:57:00,78.3,65.1,29.90,South,180,0.0,-999.0,64,-99.99,,,0.00,Acu-Link.com,2013-06-04 22:57:00,
2013-06-04 19:12:00,77.5,65.2,29.90,South,180,0.0,-999.0,66,-99.99,,,0.00,Acu-Link.com,2013-06-04 23:12:00,
2013-06-04 19:28:00,76.5,65.6,29.90,SSE,157,0.0,-999.0,69,-99.99,,,0.00,Acu-Link.com,2013-06-04 23:28:00,
2013-06-04 19:43:00,75.6,65.5,29.91,South,180,0.0,-999.0,71,-99.99,,,0.00,Acu-Link.com,2013-06-04 23:43:00,
2013-06-04 19:58:00,74.7,65.1,29.92,SSE,157,0.0,-999.0,72,-99.99,,,0.00,Acu-Link.com,2013-06-04 23:58:00,
2013-06-04 20:13:00,74.1,65.7,29.92,WSW,247,0.0,-999.0,75,-99.99,,,0.00,Acu-Link.com,2013-06-05 00:13:00,
2013-06-04 20:29:00,73.0,65.4,29.92,West,270,0.0,-999.0,77,-99.99,,,0.00,Acu-Link.com,2013-06-05 00:29:00,
2013-06-04 20:44:00,72.1,64.9,29.93,West,270,0.0,-999.0,78,-99.99,,,0.00,Acu-Link.com,2013-06-05 00:44:00,
2013-06-04 20:59:00,71.1,64.2,29.93,WSW,247,0.0,-999.0,79,-99.99,,,0.00,Acu-Link.com,2013-06-05 00:59:00,
2013-06-04 21:15:00,70.2,64.1,29.93,ESE,112,0.0,-999.0,81,-99.99,,,0.00,Acu-Link.com,2013-06-05 01:15:00,
2013-06-04 21:30:00,69.4,64.0,29.93,NNE,22,0.0,-999.0,83,-99.99,,,0.00,Acu-Link.com,2013-06-05 01:30:00,
2013-06-04 21:45:00,69.1,64.4,29.95,WNW,292,0.0,-999.0,85,-99.99,,,0.00,Acu-Link.com,2013-06-05 01:45:00,
2013-06-04 22:01:00,68.9,64.2,29.95,ESE,112,0.0,-999.0,85,-99.99,,,0.00,Acu-Link.com,2013-06-05 02:01:00,
2013-06-04 22:16:00,68.7,64.3,29.95,WSW,247,0.0,-999.0,86,-99.99,,,0.00,Acu-Link.com,2013-06-05 02:16:00,
2013-06-04 22:31:00,69.3,64.9,29.97,NW,315,2.7,-999.0,86,-99.99,,,0.00,Acu-Link.com,2013-06-05 02:31:00,
2013-06-04 22:46:00,69.3,64.3,29.96,SSE,157,0.0,-999.0,84,-99.99,,,0.00,Acu-Link.com,2013-06-05 02:46:00,
2013-06-04 23:02:00,69.3,64.3,29.97,SSE,157,0.0,-999.0,84,-99.99,,,0.00,Acu-Link.com,2013-06-05 03:02:00,
2013-06-04 23:17:00,68.9,63.9,29.96,WSW,247,1.7,-999.0,84,-99.99,,,0.00,Acu-Link.com,2013-06-05 03:17:00,
2013-06-04 23:32:00,68.9,63.9,29.97,ESE,112,0.0,-999.0,84,-99.99,,,0.00,Acu-Link.com,2013-06-05 03:32:00,
2013-06-04 23:47:00,69.1,63.7,29.96,SW,225,0.0,-999.0,83,-99.99,,,0.00,Acu-Link.com,2013-06-05 03:47:00,